Time;durP1;ratioP1;P1;durP2;ratioP2;P2;SDS_P1;SDS_P2;PMS_P1;PMS_P2;Temp;Humidity;BMP_temperature;BMP_pressure;BME280_temperature;BME280_humidity;BME280_pressure;Samples;Min_cycle;Max_cycle;Signal;HPM_P1;HPM_P2
2022/02/20 00:01:27;;;;;;;4.88;1.45;;;;;;;3.24;90.74;96883.75;5132084;27;20533;-44
2022/02/20 00:03:53;;;;;;;6.53;1.52;;;;;;;3.35;90.36;96892.53;5132164;27;20043;-41
2022/02/20 00:06:18;;;;;;;1.98;1.20;;;;;;;3.31;90.43;96892.78;5113056;27;20127;-42
2022/02/20 00:08:45;;;;;;;2.00;1.50;;;;;;;3.29;90.92;96884.34;5113083;27;20466;-42
2022/02/20 00:11:11;;;;;;;1.42;0.95;;;;;;;3.30;90.47;96894.50;5130233;27;20085;-42
2022/02/20 00:13:37;;;;;;;3.00;1.42;;;;;;;3.17;90.80;96885.78;5131540;27;20129;-41
2022/02/20 00:16:03;;;;;;;1.55;0.98;;;;;;;3.26;91.14;96893.00;5130351;27;20087;-42
2022/02/20 00:18:29;;;;;;;2.00;1.30;;;;;;;3.19;91.21;96881.38;5131343;27;20112;-42
2022/02/20 00:20:54;;;;;;;2.53;1.13;;;;;;;3.26;90.94;96894.75;5113293;27;20064;-42
2022/02/20 00:23:20;;;;;;;2.08;1.20;;;;;;;3.19;91.61;96891.63;5113648;27;20106;-44
2022/02/20 00:25:46;;;;;;;3.05;1.23;;;;;;;3.09;91.98;96879.38;5111981;27;20067;-43
2022/02/20 00:28:13;;;;;;;2.00;1.15;;;;;;;3.19;92.78;96888.28;5113867;27;20429;-42
2022/02/20 00:30:41;;;;;;;1.08;0.70;;;;;;;3.20;93.50;96887.34;5131358;27;20039;-42
2022/02/20 00:33:07;;;;;;;2.08;1.40;;;;;;;3.15;94.08;96882.44;5131740;27;20460;-42
2022/02/20 00:35:33;;;;;;;2.55;0.80;;;;;;;3.16;94.83;96875.56;5131667;27;20035;-42
2022/02/20 00:38:00;;;;;;;3.15;1.25;;;;;;;3.16;95.06;96883.28;5130867;27;20035;-41
2022/02/20 00:40:27;;;;;;;1.55;0.80;;;;;;;2.94;95.56;96868.09;5113420;27;20042;-42
2022/02/20 00:42:53;;;;;;;1.98;1.08;;;;;;;2.97;96.85;96876.50;5131461;27;20062;-41
2022/02/20 00:45:18;;;;;;;2.38;1.40;;;;;;;2.98;97.75;96870.44;5112839;27;20082;-41
2022/02/20 00:47:44;;;;;;;2.35;1.58;;;;;;;2.97;98.61;96868.78;5131813;27;20038;-42
2022/02/20 00:50:11;;;;;;;1.40;1.08;;;;;;;3.04;99.06;96881.28;5129498;27;20043;-43
2022/02/20 00:52:37;;;;;;;3.15;1.50;;;;;;;2.97;98.65;96863.66;5096144;28;20087;-41
2022/02/20 00:55:03;;;;;;;2.85;1.48;;;;;;;2.94;98.81;96863.78;5113415;27;20047;-42
2022/02/20 00:57:29;;;;;;;3.17;1.42;;;;;;;2.86;99.69;96858.22;5081935;28;20046;-41
2022/02/20 00:59:55;;;;;;;4.55;1.75;;;;;;;2.83;100.00;96870.34;5113457;28;20038;-41
2022/02/20 01:02:20;;;;;;;1.55;1.10;;;;;;;2.73;100.00;96887.09;5110962;28;20503;-41
2022/02/20 01:04:51;;;;;;;;;;;;;;;2.64;100.00;96870.41;5113297;28;20062;-42
2022/02/20 01:07:18;;;;;;;3.38;1.45;;;;;;;2.62;100.00;96863.72;5113329;28;19927;-41
2022/02/20 01:09:44;;;;;;;2.08;1.80;;;;;;;2.68;100.00;96881.34;5112925;28;20126;-43
2022/02/20 01:12:10;;;;;;;3.55;1.50;;;;;;;2.64;100.00;96872.97;5124631;28;20095;-42
2022/02/20 01:14:36;;;;;;;1.73;1.20;;;;;;;2.53;100.00;96852.97;5098339;28;20131;-42
2022/02/20 01:17:03;;;;;;;2.28;1.45;;;;;;;2.62;100.00;96856.81;5109836;28;20123;-42
2022/02/20 01:19:28;;;;;;;2.13;1.10;;;;;;;2.58;100.00;96868.16;5109507;27;20230;-42
2022/02/20 01:21:54;;;;;;;1.45;1.08;;;;;;;2.48;100.00;96864.34;5135404;27;20042;-41
2022/02/20 01:24:20;;;;;;;1.60;0.98;;;;;;;2.51;100.00;96880.41;5133774;27;20074;-41
2022/02/20 01:26:45;;;;;;;1.20;0.82;;;;;;;2.36;100.00;96864.91;5134710;27;20460;-42
2022/02/20 01:29:11;;;;;;;0.90;0.73;;;;;;;2.33;100.00;96880.47;5135477;27;20043;-42
2022/02/20 01:31:37;;;;;;;1.33;0.75;;;;;;;2.29;100.00;96878.94;5134356;27;20035;-42
2022/02/20 01:34:03;;;;;;;1.63;0.95;;;;;;;2.25;100.00;96887.69;5099475;27;20046;-43
2022/02/20 01:36:30;;;;;;;1.00;0.68;;;;;;;2.22;100.00;96895.50;5096337;28;20040;-42
2022/02/20 01:38:57;;;;;;;1.27;0.70;;;;;;;2.20;100.00;96887.06;5113785;27;20047;-41
2022/02/20 01:41:23;;;;;;;2.28;1.30;;;;;;;2.22;100.00;96891.19;5097621;28;20043;-42
2022/02/20 01:43:54;;;;;;;1.77;0.98;;;;;;;2.21;100.00;96883.56;5130424;27;20036;-41
2022/02/20 01:46:21;;;;;;;2.63;1.30;;;;;;;2.14;100.00;96875.38;5130561;27;20047;-42
2022/02/20 01:48:48;;;;;;;1.20;1.00;;;;;;;2.29;100.00;96907.13;5102137;27;20046;-42
2022/02/20 01:51:16;;;;;;;1.92;1.00;;;;;;;2.24;100.00;96886.84;5115984;27;20043;-42
2022/02/20 01:53:43;;;;;;;1.23;0.77;;;;;;;2.17;100.00;96876.94;5095762;28;20047;-41
2022/02/20 01:56:10;;;;;;;1.42;0.77;;;;;;;2.26;100.00;96908.09;5113312;28;20031;-43
2022/02/20 01:59:03;;;;;;;2.38;1.00;;;;;;;2.23;100.00;96894.59;5127081;27;20051;-42
2022/02/20 02:01:28;;;;;;;1.58;1.13;;;;;;;2.13;100.00;96891.63;5133984;27;20146;-42
2022/02/20 02:04:04;;;;;;;1.67;1.05;;;;;;;2.14;100.00;96895.84;5114543;27;20131;-42
2022/02/20 02:06:51;;;;;;;0.80;0.60;;;;;;;2.14;100.00;96890.72;5115206;27;20042;-43
2022/02/20 02:09:37;;;;;;;1.40;1.08;;;;;;;2.16;100.00;96896.59;5133542;27;20212;-42
2022/02/20 02:12:23;;;;;;;1.23;0.60;;;;;;;2.09;100.00;96901.16;5128544;27;20127;-42
2022/02/20 02:15:12;;;;;;;1.52;1.00;;;;;;;2.08;100.00;96903.81;5095397;27;20043;-42
2022/02/20 02:17:50;;;;;;;2.73;1.03;;;;;;;2.03;100.00;96893.78;5132658;27;20043;-41
2022/02/20 02:20:30;;;;;;;0.85;0.60;;;;;;;2.01;100.00;96876.81;5115876;27;20509;-41
2022/02/20 02:23:09;;;;;;;1.85;1.00;;;;;;;2.11;100.00;96909.63;5134132;27;20049;-42
2022/02/20 02:25:56;;;;;;;0.73;0.73;;;;;;;2.08;100.00;96899.53;5133256;27;20399;-41
2022/02/20 02:28:45;;;;;;;1.05;0.88;;;;;;;2.06;100.00;96890.22;5109953;27;20046;-42
2022/02/20 02:31:16;;;;;;;1.98;1.10;;;;;;;2.15;100.00;96915.44;5115601;27;20125;-42
2022/02/20 02:33:50;;;;;;;1.08;0.63;;;;;;;2.13;100.00;96904.44;5115491;27;20043;-41
2022/02/20 02:36:16;;;;;;;1.42;0.75;;;;;;;2.09;100.00;96910.63;5132517;27;20046;-41
2022/02/20 02:38:42;;;;;;;1.20;0.70;;;;;;;2.07;100.00;96926.03;5129177;27;20045;-42
2022/02/20 02:41:12;;;;;;;;;;;;;;;2.04;100.00;96902.31;5116098;27;20363;-43
2022/02/20 02:43:40;;;;;;;5.20;0.93;;;;;;;2.04;100.00;96910.78;5097971;27;20357;-43
2022/02/20 02:46:06;;;;;;;1.40;0.60;;;;;;;2.05;100.00;96906.50;5131878;27;20074;-41
2022/02/20 02:48:33;;;;;;;1.17;0.88;;;;;;;2.06;100.00;96909.00;5132147;27;20042;-43
2022/02/20 02:51:01;;;;;;;0.50;0.40;;;;;;;2.02;100.00;96919.47;5115102;27;20039;-42
2022/02/20 02:53:28;;;;;;;1.58;0.90;;;;;;;1.94;100.00;96921.50;5114879;27;20068;-42
2022/02/20 02:55:54;;;;;;;1.23;0.70;;;;;;;1.94;100.00;96921.50;5112286;27;20130;-42
2022/02/20 02:58:24;;;;;;;1.35;0.85;;;;;;;1.76;100.00;96900.13;5108221;27;20043;-41
2022/02/20 03:00:52;;;;;;;1.57;1.07;;;;;;;1.84;100.00;96930.50;5114653;27;20095;-41
2022/02/20 03:03:17;;;;;;;1.30;1.08;;;;;;;1.80;100.00;96918.75;5098415;27;20051;-42
2022/02/20 03:05:44;;;;;;;2.92;1.63;;;;;;;1.79;100.00;96932.44;5097973;27;20422;-42
2022/02/20 03:08:10;;;;;;;3.17;1.48;;;;;;;1.74;100.00;96939.47;5130761;27;20149;-43
2022/02/20 03:10:36;;;;;;;2.63;1.15;;;;;;;1.70;100.00;96923.44;5132248;27;20042;-42
2022/02/20 03:13:03;;;;;;;2.25;1.00;;;;;;;1.68;100.00;96917.53;5115264;27;20039;-41
2022/02/20 03:15:32;;;;;;;2.78;1.67;;;;;;;1.71;100.00;96922.53;5115317;27;20042;-41
2022/02/20 03:17:58;;;;;;;1.98;1.42;;;;;;;1.75;100.00;96924.06;5114432;27;20047;-41
2022/02/20 03:20:23;;;;;;;3.80;2.22;;;;;;;1.74;100.00;96940.31;5131251;27;20046;-42
2022/02/20 03:22:49;;;;;;;1.10;0.93;;;;;;;1.74;100.00;96926.69;5132696;27;20046;-42
2022/02/20 03:25:15;;;;;;;4.47;1.85;;;;;;;1.74;100.00;96931.81;5132025;27;20035;-42
2022/02/20 03:27:43;;;;;;;3.55;1.58;;;;;;;1.64;100.00;96932.22;5131957;27;20046;-42
2022/02/20 03:30:15;;;;;;;2.03;1.63;;;;;;;1.66;100.00;96950.91;5096901;27;20043;-43
2022/02/20 03:32:48;;;;;;;2.38;1.50;;;;;;;1.64;100.00;96937.31;5115276;27;20037;-42
2022/02/20 03:35:18;;;;;;;4.47;1.98;;;;;;;1.66;100.00;96942.38;5113928;27;20046;-42
2022/02/20 03:37:44;;;;;;;2.03;1.60;;;;;;;1.67;100.00;96949.19;5113609;27;20464;-43
2022/02/20 03:40:12;;;;;;;3.42;2.33;;;;;;;1.67;100.00;96946.63;5114719;27;20073;-41
2022/02/20 03:42:38;;;;;;;2.10;1.30;;;;;;;1.70;100.00;96951.59;5130537;27;20049;-42
2022/02/20 03:45:23;;;;;;;2.58;1.70;;;;;;;1.72;100.00;96949.81;5112907;27;20122;-42
2022/02/20 03:47:52;;;;;;;1.38;1.13;;;;;;;1.75;100.00;96959.91;5112789;27;20071;-42
2022/02/20 03:50:19;;;;;;;3.72;1.80;;;;;;;1.72;100.00;96943.84;5113932;27;20050;-43
2022/02/20 03:52:49;;;;;;;2.20;1.30;;;;;;;1.78;100.00;96972.56;5113924;27;20055;-42
2022/02/20 03:55:21;;;;;;;3.05;1.48;;;;;;;1.76;100.00;96969.25;5114305;27;20047;-44
2022/02/20 03:57:49;;;;;;;2.63;1.52;;;;;;;1.66;100.00;96940.66;5124327;27;20510;-42
2022/02/20 04:00:23;;;;;;;2.85;1.60;;;;;;;1.75;100.00;96965.03;5117338;27;20038;-42
2022/02/20 04:03:11;;;;;;;2.38;1.30;;;;;;;1.65;100.00;96962.03;5138585;27;20063;-41
2022/02/20 04:05:43;;;;;;;6.07;2.35;;;;;;;1.74;100.00;96965.09;5132508;27;20084;-42
2022/02/20 04:08:11;;;;;;;2.75;1.85;;;;;;;1.68;100.00;96959.34;5095171;27;20151;-42
2022/02/20 04:10:38;;;;;;;3.75;2.03;;;;;;;1.80;100.00;96980.19;5116796;27;20068;-43
2022/02/20 04:13:07;;;;;;;2.08;1.25;;;;;;;1.85;100.00;96978.28;5104032;27;20046;-44
2022/02/20 04:15:43;;;;;;;2.83;1.10;;;;;;;1.88;100.00;96979.00;5128825;27;20023;-43
2022/02/20 04:18:18;;;;;;;3.00;1.50;;;;;;;1.86;100.00;96983.34;5105508;27;20055;-42
2022/02/20 04:20:52;;;;;;;2.40;1.50;;;;;;;1.88;100.00;96991.81;5082598;27;20065;-42
2022/02/20 04:23:18;;;;;;;2.45;1.67;;;;;;;1.86;100.00;96996.16;5110389;27;20042;-43
2022/02/20 04:25:43;;;;;;;2.38;1.73;;;;;;;1.86;100.00;96983.34;5124966;27;20047;-43
2022/02/20 04:28:09;;;;;;;4.63;1.58;;;;;;;1.80;100.00;96975.91;5100470;27;20061;-42
2022/02/20 04:30:37;;;;;;;3.95;2.25;;;;;;;1.96;100.00;96999.13;5113157;27;20053;-43
2022/02/20 04:33:08;;;;;;;4.00;1.85;;;;;;;2.00;100.00;97009.19;5133816;27;20038;-44
2022/02/20 04:35:34;;;;;;;1.85;1.10;;;;;;;1.97;100.00;97004.19;5109345;27;20422;-43
2022/02/20 04:38:00;;;;;;;1.52;1.30;;;;;;;1.83;100.00;96988.59;5089881;27;20132;-43
2022/02/20 04:40:26;;;;;;;3.83;2.15;;;;;;;1.92;100.00;97012.97;5106899;28;20129;-43
2022/02/20 04:42:58;;;;;;;4.47;2.13;;;;;;;1.95;100.00;97018.78;5087607;27;20032;-42
2022/02/20 04:45:24;;;;;;;2.17;1.38;;;;;;;1.95;100.00;97013.69;5107455;27;20690;-44
2022/02/20 04:47:50;;;;;;;3.38;1.77;;;;;;;1.92;100.00;97020.66;5110712;27;20121;-41
2022/02/20 04:50:18;;;;;;;2.90;1.23;;;;;;;1.92;100.00;97018.94;5111884;27;20039;-45
2022/02/20 04:52:46;;;;;;;3.58;1.25;;;;;;;1.92;100.00;97020.66;5132345;27;20569;-46
2022/02/20 04:55:17;;;;;;;1.80;1.27;;;;;;;1.89;100.00;97036.97;5108432;28;20043;-46
2022/02/20 04:57:43;;;;;;;1.95;1.38;;;;;;;1.93;100.00;97033.41;5106668;28;20035;-44
2022/02/20 05:00:19;;;;;;;2.72;1.83;;;;;;;1.90;100.00;97030.97;5092483;27;20087;-43
2022/02/20 05:03:05;;;;;;;1.65;1.27;;;;;;;1.91;100.00;97034.38;5128693;27;20767;-45
2022/02/20 05:06:03;;;;;;;3.00;1.95;;;;;;;1.90;100.00;97043.78;5078793;28;20054;-44
2022/02/20 05:08:44;;;;;;;3.10;1.67;;;;;;;1.90;100.00;97046.34;5103266;28;20418;-43
2022/02/20 05:11:15;;;;;;;2.88;1.85;;;;;;;1.90;100.00;97048.91;5107034;28;20429;-45
2022/02/20 05:13:42;;;;;;;2.70;1.80;;;;;;;1.95;100.00;97044.41;5106868;28;20047;-45
2022/02/20 05:16:08;;;;;;;2.75;1.88;;;;;;;1.98;100.00;97048.59;5106736;28;20072;-43
2022/02/20 05:18:35;;;;;;;2.92;1.63;;;;;;;1.98;100.00;97062.22;5104591;28;20066;-44
2022/02/20 05:21:00;;;;;;;2.40;1.60;;;;;;;2.00;100.00;97062.16;5123986;27;20046;-45
2022/02/20 05:23:30;;;;;;;;;;;;;;;1.96;100.00;97071.69;5125397;28;20456;-44
2022/02/20 05:25:55;;;;;;;3.45;1.45;;;;;;;1.90;100.00;97074.50;5090600;28;20018;-43
2022/02/20 05:28:21;;;;;;;3.35;1.80;;;;;;;1.94;100.00;97082.88;5123614;28;20116;-43
2022/02/20 05:30:52;;;;;;;1.35;0.77;;;;;;;1.97;100.00;97081.06;5114350;28;20066;-44
2022/02/20 05:33:23;;;;;;;2.42;1.38;;;;;;;1.84;100.00;97053.44;5123814;28;20039;-43
2022/02/20 05:35:50;;;;;;;2.95;1.98;;;;;;;2.09;100.00;97097.66;5124329;28;20043;-42
2022/02/20 05:38:26;;;;;;;1.90;1.20;;;;;;;1.98;100.00;97102.38;5106203;28;20546;-42
2022/02/20 05:40:52;;;;;;;2.22;1.35;;;;;;;1.99;100.00;97099.75;5106852;28;20046;-43
2022/02/20 05:43:18;;;;;;;3.03;1.80;;;;;;;1.98;100.00;97098.09;5107177;28;20069;-44
2022/02/20 05:45:46;;;;;;;2.67;1.85;;;;;;;2.01;100.00;97112.50;5124047;27;20043;-46
2022/02/20 05:48:22;;;;;;;1.25;0.88;;;;;;;2.00;100.00;97114.22;5119178;27;20046;-44
2022/02/20 05:51:20;;;;;;;2.50;1.50;;;;;;;2.05;100.00;97121.72;5097127;27;20054;-46
2022/02/20 05:54:06;;;;;;;3.88;2.50;;;;;;;2.13;100.00;97119.69;5123913;27;20058;-46
2022/02/20 05:56:31;;;;;;;3.95;2.15;;;;;;;2.24;100.00;97116.66;5106703;28;20039;-43
2022/02/20 05:59:03;;;;;;;3.35;1.90;;;;;;;2.23;100.00;97120.13;5107004;28;20084;-42
2022/02/20 06:01:32;;;;;;;3.38;1.90;;;;;;;2.26;100.00;97133.63;5106830;27;20072;-42
2022/02/20 06:04:00;;;;;;;3.15;2.05;;;;;;;2.27;100.00;97121.66;5105910;28;20092;-42
2022/02/20 06:06:35;;;;;;;2.85;1.90;;;;;;;2.43;100.00;97138.03;5108996;27;20038;-42
2022/02/20 06:09:10;;;;;;;2.42;1.90;;;;;;;2.41;100.00;97147.53;5110223;27;20039;-41
2022/02/20 06:11:40;;;;;;;2.40;1.67;;;;;;;2.51;100.00;97154.75;5109212;27;20570;-42
2022/02/20 06:14:33;;;;;;;3.22;1.38;;;;;;;2.48;100.00;97154.06;5121557;27;20055;-42
2022/02/20 06:17:09;;;;;;;3.25;1.98;;;;;;;2.49;100.00;97166.00;5109921;27;20067;-44
2022/02/20 06:19:55;;;;;;;2.60;1.52;;;;;;;2.54;100.00;97169.19;5119144;27;20053;-42
2022/02/20 06:22:30;;;;;;;2.55;1.42;;;;;;;2.69;100.00;97183.94;5117436;27;20509;-43
2022/02/20 06:25:21;;;;;;;2.95;1.48;;;;;;;2.77;100.00;97187.00;5098182;27;20035;-42
2022/02/20 06:28:05;;;;;;;7.22;1.17;;;;;;;2.71;100.00;97192.41;5104086;27;20053;-44
2022/02/20 06:30:31;;;;;;;4.07;2.00;;;;;;;2.77;100.00;97199.00;5113608;27;20042;-43
2022/02/20 06:32:57;;;;;;;2.42;1.58;;;;;;;2.91;100.00;97212.06;5097062;27;20126;-44
2022/02/20 06:35:23;;;;;;;1.13;0.80;;;;;;;2.94;100.00;97211.91;5096729;27;20051;-46
2022/02/20 06:37:49;;;;;;;3.58;1.48;;;;;;;2.92;100.00;97224.00;5114305;27;20108;-44
2022/02/20 06:40:19;;;;;;;4.97;2.53;;;;;;;2.89;100.00;97229.25;5119495;27;20041;-46
2022/02/20 06:42:44;;;;;;;3.53;1.23;;;;;;;2.98;100.00;97234.00;5120274;27;20038;-44
2022/02/20 06:45:16;;;;;;;2.67;1.00;;;;;;;3.06;100.00;97241.34;5123832;27;20091;-43
2022/02/20 06:48:01;;;;;;;2.08;0.90;;;;;;;3.08;100.00;97257.53;5125451;27;20099;-44
2022/02/20 06:50:45;;;;;;;2.50;0.90;;;;;;;3.18;100.00;97262.19;5120921;27;20039;-43
2022/02/20 06:53:17;;;;;;;0.70;0.70;;;;;;;3.21;100.00;97261.22;5098715;27;20589;-44
2022/02/20 06:55:58;;;;;;;1.02;0.90;;;;;;;3.23;100.00;97273.09;5120326;27;20031;-41
2022/02/20 06:58:23;;;;;;;1.98;1.10;;;;;;;3.21;100.00;97249.22;5133980;27;20426;-42
2022/02/20 07:00:49;;;;;;;1.60;0.80;;;;;;;3.50;100.00;97283.03;5136711;27;20050;-43
2022/02/20 07:03:16;;;;;;;1.23;0.90;;;;;;;3.62;100.00;97296.16;5140324;27;20522;-43
2022/02/20 07:05:42;;;;;;;1.63;1.05;;;;;;;3.77;100.00;97295.47;5123839;27;20035;-41
2022/02/20 07:08:07;;;;;;;2.97;1.10;;;;;;;3.76;100.00;97304.09;5118088;27;20050;-41
2022/02/20 07:10:33;;;;;;;2.42;1.20;;;;;;;3.84;100.00;97320.00;5138287;27;20030;-42
2022/02/20 07:12:59;;;;;;;1.40;0.98;;;;;;;3.97;100.00;97319.44;5130969;27;20039;-45
2022/02/20 07:15:25;;;;;;;1.30;0.90;;;;;;;3.93;100.00;97315.31;5113922;27;20039;-42
2022/02/20 07:17:51;;;;;;;1.70;1.10;;;;;;;4.09;100.00;97329.97;5132461;27;20043;-45
2022/02/20 07:20:17;;;;;;;1.67;1.08;;;;;;;4.21;100.00;97329.41;5106746;27;20041;-45
2022/02/20 07:22:43;;;;;;;1.25;1.00;;;;;;;4.33;100.00;97345.19;5137560;27;20026;-46
2022/02/20 07:25:09;;;;;;;1.75;1.05;;;;;;;4.33;100.00;97340.88;5112763;27;20043;-46
2022/02/20 07:27:42;;;;;;;1.88;1.20;;;;;;;4.51;99.84;97347.72;5105831;27;20046;-47
2022/02/20 07:30:10;;;;;;;2.25;1.00;;;;;;;4.77;98.58;97358.50;5114311;27;20046;-46
2022/02/20 07:32:36;;;;;;;2.17;1.20;;;;;;;4.63;94.28;97359.16;5131057;27;20126;-47
2022/02/20 07:35:02;;;;;;;1.05;0.90;;;;;;;4.39;93.32;97360.34;5113857;27;20498;-46
2022/02/20 07:37:29;;;;;;;1.23;0.70;;;;;;;4.34;93.00;97378.56;5111642;27;20043;-46
2022/02/20 07:39:56;;;;;;;1.42;0.90;;;;;;;4.27;93.36;97377.16;5113378;27;20042;-47
2022/02/20 07:42:22;;;;;;;1.35;0.93;;;;;;;4.33;93.33;97392.31;5106594;28;20085;-45
2022/02/20 07:44:48;;;;;;;2.75;0.77;;;;;;;4.34;92.17;97394.00;5129846;27;20038;-48
2022/02/20 07:47:13;;;;;;;1.30;0.77;;;;;;;4.37;92.39;97401.53;5096480;27;20034;-46
2022/02/20 07:49:39;;;;;;;1.48;1.15;;;;;;;4.32;92.16;97400.09;5131613;27;20043;-46
2022/02/20 07:52:05;;;;;;;0.70;0.63;;;;;;;4.32;92.54;97415.53;5104203;27;20039;-47
2022/02/20 07:54:33;;;;;;;1.52;1.00;;;;;;;4.22;91.93;97412.53;5113483;27;20066;-46
2022/02/20 07:56:59;;;;;;;1.42;0.90;;;;;;;4.28;92.50;97429.44;5128759;27;20161;-45
2022/02/20 07:59:27;;;;;;;1.30;1.00;;;;;;;4.28;89.94;97429.44;5128522;27;20039;-42
2022/02/20 08:01:53;;;;;;;3.60;1.10;;;;;;;4.20;89.73;97440.03;5133250;27;20480;-44
2022/02/20 08:04:19;;;;;;;1.55;0.93;;;;;;;4.42;90.16;97445.91;5139907;27;20043;-44
2022/02/20 08:06:45;;;;;;;1.10;0.93;;;;;;;4.66;89.35;97460.19;5134345;27;20130;-46
2022/02/20 08:09:11;;;;;;;1.73;0.80;;;;;;;4.77;88.25;97464.00;5136122;27;20039;-45
2022/02/20 08:11:37;;;;;;;1.60;0.80;;;;;;;5.02;86.47;97461.97;5130801;27;20035;-49
2022/02/20 08:14:02;;;;;;;1.20;0.70;;;;;;;5.18;85.56;97469.81;5110994;27;20055;-45
2022/02/20 08:16:28;;;;;;;1.77;0.93;;;;;;;5.73;82.14;97465.31;5130723;27;20456;-47
2022/02/20 08:18:55;;;;;;;1.23;0.98;;;;;;;6.10;79.44;97464.31;5112756;27;20037;-46
2022/02/20 08:21:21;;;;;;;1.67;0.57;;;;;;;6.10;76.02;97469.47;5130154;27;20426;-51
2022/02/20 08:23:47;;;;;;;0.93;0.80;;;;;;;5.63;77.59;97480.41;5130187;27;20049;-44
2022/02/20 08:26:13;;;;;;;0.90;0.50;;;;;;;5.42;78.13;97496.94;5112761;27;20099;-45
2022/02/20 08:28:39;;;;;;;1.00;0.68;;;;;;;5.31;77.77;97482.00;5113402;27;20171;-44
2022/02/20 08:31:05;;;;;;;0.95;0.60;;;;;;;5.53;77.38;97502.41;5110743;27;20169;-46
2022/02/20 08:33:31;;;;;;;1.10;0.60;;;;;;;5.77;75.43;97505.50;5129456;27;20078;-45
2022/02/20 08:35:56;;;;;;;0.95;0.82;;;;;;;6.08;73.55;97504.81;5111176;27;20027;-45
2022/02/20 08:38:22;;;;;;;1.38;0.73;;;;;;;6.62;72.02;97504.53;5110977;27;20069;-43
2022/02/20 08:40:49;;;;;;;2.13;0.70;;;;;;;6.68;69.32;97521.44;5128351;27;20046;-46
2022/02/20 08:43:15;;;;;;;1.38;0.82;;;;;;;6.82;70.12;97531.84;5128382;27;20418;-46
2022/02/20 08:45:41;;;;;;;0.45;0.30;;;;;;;6.20;66.75;97520.50;5130695;27;20043;-49
2022/02/20 08:48:07;;;;;;;0.68;0.45;;;;;;;5.88;66.28;97540.19;5128391;27;20054;-45
2022/02/20 08:50:32;;;;;;;0.60;0.40;;;;;;;5.66;65.90;97552.44;5129638;27;20038;-46
2022/02/20 08:52:58;;;;;;;0.90;0.70;;;;;;;5.48;65.82;97567.06;5111898;28;20062;-44
2022/02/20 08:55:24;;;;;;;0.93;0.70;;;;;;;5.86;66.16;97566.94;5110632;28;20034;-45
2022/02/20 08:57:50;;;;;;;1.70;0.68;;;;;;;5.78;67.55;97567.31;5110362;27;20427;-41
2022/02/20 09:00:16;;;;;;;0.95;0.60;;;;;;;5.54;68.01;97573.66;5128695;28;20538;-43
2022/02/20 09:02:42;;;;;;;1.58;0.68;;;;;;;5.66;68.28;97590.25;5128757;28;20043;-43
2022/02/20 09:05:08;;;;;;;1.27;0.80;;;;;;;5.89;68.09;97580.53;5110181;28;20548;-44
2022/02/20 09:07:34;;;;;;;0.82;0.80;;;;;;;7.93;62.35;97598.03;5111964;28;20075;-39
2022/02/20 09:10:00;;;;;;;3.00;0.88;;;;;;;9.76;56.91;97592.00;5104725;28;20570;-42
2022/02/20 09:12:26;;;;;;;1.65;0.85;;;;;;;11.42;54.71;97591.94;5127827;28;20054;-42
2022/02/20 09:14:51;;;;;;;0.90;0.57;;;;;;;11.69;46.54;97593.50;5108763;28;20050;-42
2022/02/20 09:17:17;;;;;;;1.15;1.00;;;;;;;12.27;47.76;97596.16;5128091;28;20052;-41
2022/02/20 09:19:43;;;;;;;0.88;0.75;;;;;;;13.29;41.91;97596.16;5108542;28;20517;-42
2022/02/20 09:22:09;;;;;;;1.20;0.80;;;;;;;14.29;39.84;97598.44;5108559;28;20510;-43
2022/02/20 09:24:35;;;;;;;1.08;0.88;;;;;;;14.41;38.24;97609.69;5126521;28;20129;-42
2022/02/20 09:27:01;;;;;;;1.02;0.90;;;;;;;14.12;39.29;97614.69;5128362;28;20464;-42
2022/02/20 09:29:26;;;;;;;0.70;0.70;;;;;;;14.17;39.51;97609.91;5091300;28;20061;-43
2022/02/20 09:31:53;;;;;;;1.58;1.13;;;;;;;14.59;38.83;97623.88;5110611;28;20076;-41
2022/02/20 09:34:20;;;;;;;4.38;1.05;;;;;;;14.80;38.42;97622.06;5127148;27;20139;-41
2022/02/20 09:36:46;;;;;;;1.48;0.95;;;;;;;13.59;38.17;97639.88;5109714;28;20399;-42
2022/02/20 09:39:11;;;;;;;1.80;0.70;;;;;;;13.78;37.23;97627.03;5108650;27;20054;-43
2022/02/20 09:41:37;;;;;;;1.92;0.80;;;;;;;14.05;37.16;97647.50;5108512;27;20130;-44
2022/02/20 09:44:03;;;;;;;1.10;0.90;;;;;;;14.25;36.65;97635.41;5127682;27;20349;-42
2022/02/20 09:46:29;;;;;;;1.50;0.95;;;;;;;13.21;37.88;97655.09;5110843;27;20051;-42
2022/02/20 09:48:57;;;;;;;1.23;1.02;;;;;;;12.44;39.14;97660.03;5104799;27;20086;-43
2022/02/20 09:51:22;;;;;;;1.52;0.80;;;;;;;11.78;39.14;97661.38;5105992;27;20043;-42
2022/02/20 09:53:48;;;;;;;1.92;1.02;;;;;;;11.89;38.87;97671.88;5113187;27;20039;-43
2022/02/20 09:56:14;;;;;;;0.95;0.80;;;;;;;12.00;37.12;97663.28;5132981;27;20162;-45
2022/02/20 09:58:41;;;;;;;1.40;1.10;;;;;;;12.79;36.94;97690.47;5132409;27;20045;-44
2022/02/20 10:01:08;;;;;;;0.80;0.70;;;;;;;12.62;35.32;97674.28;5129057;27;20415;-43
2022/02/20 10:03:36;;;;;;;3.35;1.05;;;;;;;12.19;35.27;97681.03;5128855;27;20042;-43
2022/02/20 10:06:04;;;;;;;1.27;0.70;;;;;;;11.94;35.61;97686.31;5114242;27;20050;-44
2022/02/20 10:08:42;;;;;;;1.08;0.80;;;;;;;11.77;35.61;97685.78;5131849;27;20038;-44
2022/02/20 10:11:14;;;;;;;1.20;0.80;;;;;;;11.94;35.60;97691.53;5130960;27;20069;-44
2022/02/20 10:13:40;;;;;;;0.80;0.60;;;;;;;12.12;36.37;97701.47;5133201;27;20418;-43
2022/02/20 10:16:27;;;;;;;1.33;0.73;;;;;;;11.08;36.56;97729.66;5132018;27;20054;-46
2022/02/20 10:19:15;;;;;;;1.40;0.80;;;;;;;10.60;38.02;97704.22;5111408;27;20054;-43
2022/02/20 10:22:27;;;;;;;0.95;0.70;;;;;;;10.14;38.85;97714.16;5063867;28;20052;-44
2022/02/20 10:25:13;;;;;;;0.70;0.70;;;;;;;10.38;39.45;97726.50;5129440;27;20529;-43
2022/02/20 10:28:07;;;;;;;1.15;0.60;;;;;;;9.82;38.40;97730.91;5068787;27;20060;-43
2022/02/20 10:30:51;;;;;;;1.00;0.80;;;;;;;9.81;40.18;97738.78;5090166;28;20055;-43
2022/02/20 10:33:20;;;;;;;3.25;1.30;;;;;;;9.61;40.42;97721.88;5113011;27;20035;-43
2022/02/20 10:35:54;;;;;;;1.05;0.65;;;;;;;9.47;39.79;97747.81;5114674;27;20043;-43
2022/02/20 10:38:25;;;;;;;2.78;0.80;;;;;;;9.20;40.02;97737.34;5130970;27;20088;-43
2022/02/20 10:40:53;;;;;;;1.08;0.60;;;;;;;9.03;40.94;97753.06;5132149;27;20418;-43
2022/02/20 10:43:30;;;;;;;0.95;0.50;;;;;;;8.44;40.41;97758.16;5113132;27;20039;-43
2022/02/20 10:46:07;;;;;;;1.13;0.55;;;;;;;8.04;41.36;97749.19;5131077;27;20035;-43
2022/02/20 10:48:40;;;;;;;0.82;0.50;;;;;;;8.05;41.43;97761.22;5106033;27;20074;-44
2022/02/20 10:51:06;;;;;;;1.50;0.60;;;;;;;8.02;41.58;97770.88;5131977;27;20546;-45
2022/02/20 10:53:32;;;;;;;1.80;0.68;;;;;;;8.41;41.51;97767.88;5128794;27;20039;-42
2022/02/20 10:55:59;;;;;;;0.63;0.52;;;;;;;9.34;40.36;97782.25;5126015;27;20073;-45
2022/02/20 10:58:30;;;;;;;0.82;0.65;;;;;;;9.14;40.06;97774.84;5133086;27;20404;-43
2022/02/20 11:00:58;;;;;;;0.90;0.50;;;;;;;9.32;40.50;97788.44;5128814;27;20073;-43
2022/02/20 11:03:25;;;;;;;0.95;0.60;;;;;;;9.50;39.74;97797.75;5129936;27;20047;-44
2022/02/20 11:05:52;;;;;;;0.95;0.60;;;;;;;9.25;40.11;97800.13;5113039;27;20051;-41
2022/02/20 11:08:20;;;;;;;0.93;0.70;;;;;;;9.50;39.99;97808.13;5123406;27;20047;-42
2022/02/20 11:10:47;;;;;;;1.08;0.70;;;;;;;9.85;39.23;97800.78;5130027;27;20038;-44
2022/02/20 11:13:14;;;;;;;2.13;0.80;;;;;;;10.23;39.90;97819.22;5112914;27;20047;-43
2022/02/20 11:15:41;;;;;;;0.65;0.50;;;;;;;9.71;38.60;97829.34;5113000;27;20043;-44
2022/02/20 11:18:09;;;;;;;0.68;0.43;;;;;;;9.13;39.62;97824.16;5131310;27;20214;-45
2022/02/20 11:20:38;;;;;;;1.40;0.60;;;;;;;8.93;40.62;97822.75;5113396;27;20042;-44
2022/02/20 11:23:06;;;;;;;1.20;0.73;;;;;;;8.09;40.36;97829.16;5130537;27;20051;-44
2022/02/20 11:25:34;;;;;;;0.80;0.50;;;;;;;7.84;41.19;97850.31;5099425;27;20043;-43
2022/02/20 11:28:02;;;;;;;0.60;0.52;;;;;;;7.74;41.38;97848.31;5114534;27;20050;-43
2022/02/20 11:30:29;;;;;;;3.38;0.73;;;;;;;7.89;41.41;97845.75;5091402;27;20047;-42
2022/02/20 11:33:03;;;;;;;0.82;0.40;;;;;;;8.16;41.25;97852.97;5126611;27;20038;-42
2022/02/20 11:35:29;;;;;;;1.38;0.65;;;;;;;7.72;41.05;97860.47;5108693;27;20421;-44
2022/02/20 11:37:58;;;;;;;1.35;0.60;;;;;;;7.31;41.66;97868.59;5107458;27;20126;-44
2022/02/20 11:40:28;;;;;;;0.90;0.50;;;;;;;7.26;41.72;97875.75;5128464;27;20118;-43
2022/02/20 11:43:00;;;;;;;1.00;0.50;;;;;;;6.97;42.73;97866.00;5128883;27;20047;-43
2022/02/20 11:45:27;;;;;;;1.45;0.77;;;;;;;6.92;43.34;97878.28;5130965;27;20046;-42
2022/02/20 11:48:09;;;;;;;2.13;0.85;;;;;;;6.87;43.64;97888.84;5112461;27;20163;-43